Time;durP1;ratioP1;P1;durP2;ratioP2;P2;SDS_P1;SDS_P2;PMS_P1;PMS_P2;Temp;Humidity;BMP_temperature;BMP_pressure;BME280_temperature;BME280_humidity;BME280_pressure;Samples;Min_cycle;Max_cycle;Signal;HPM_P1;HPM_P2
2023/12/28 00:00:52;;;;;;;3.80;2.70;;;6.70;99.90;;;;;;5062032;28;20296;-57
2023/12/28 00:03:18;;;;;;;5.00;2.30;;;6.80;99.90;;;;;;5062011;28;20577;-57
2023/12/28 00:05:46;;;;;;;3.77;2.27;;;6.90;99.90;;;;;;5064780;28;20678;-57
2023/12/28 00:08:13;;;;;;;3.20;2.27;;;7.00;99.90;;;;;;5065354;28;20221;-57
2023/12/28 00:10:40;;;;;;;2.60;1.97;;;7.20;99.90;;;;;;5062831;28;20201;-56
2023/12/28 00:13:06;;;;;;;3.23;2.10;;;7.30;99.90;;;;;;5061907;28;20217;-57
2023/12/28 00:15:33;;;;;;;2.37;1.50;;;7.50;99.90;;;;;;5063009;28;20231;-57
2023/12/28 00:17:59;;;;;;;2.17;1.43;;;7.50;99.90;;;;;;5065043;28;20623;-58
2023/12/28 00:20:26;;;;;;;2.27;1.43;;;7.70;99.90;;;;;;5064791;28;20599;-57
2023/12/28 00:22:54;;;;;;;2.80;1.67;;;7.90;99.90;;;;;;5061734;28;20209;-57
2023/12/28 00:25:21;;;;;;;2.50;1.50;;;8.10;99.90;;;;;;5061687;28;20206;-57
2023/12/28 00:27:47;;;;;;;2.33;1.63;;;8.30;99.90;;;;;;5064770;28;20209;-57
2023/12/28 00:30:16;;;;;;;2.63;1.50;;;8.50;99.90;;;;;;5065266;28;20225;-57
2023/12/28 00:32:45;;;;;;;2.10;1.50;;;8.70;99.90;;;;;;5061645;28;20591;-59
2023/12/28 00:35:12;;;;;;;2.17;1.67;;;8.80;99.90;;;;;;5060834;28;20578;-56
2023/12/28 00:37:40;;;;;;;1.93;1.60;;;8.90;99.90;;;;;;5063576;28;20233;-57
2023/12/28 00:40:09;;;;;;;1.40;1.30;;;9.00;99.90;;;;;;5064724;28;20307;-58
2023/12/28 00:42:35;;;;;;;2.57;1.67;;;9.10;99.90;;;;;;5062795;28;20224;-57
2023/12/28 00:45:03;;;;;;;2.77;1.70;;;9.10;99.90;;;;;;5061363;28;20202;-58
2023/12/28 00:47:29;;;;;;;1.67;1.50;;;9.10;99.90;;;;;;5061926;28;20292;-56
2023/12/28 00:49:56;;;;;;;3.97;2.40;;;9.10;99.90;;;;;;5064917;28;20271;-57
2023/12/28 00:52:23;;;;;;;2.27;1.90;;;9.20;99.90;;;;;;5064284;28;20623;-56
2023/12/28 00:54:49;;;;;;;2.20;1.70;;;9.20;99.90;;;;;;5061075;28;20228;-57
2023/12/28 00:57:17;;;;;;;2.23;1.60;;;9.20;99.90;;;;;;5061147;28;20629;-57
2023/12/28 00:59:44;;;;;;;1.97;1.40;;;9.20;99.90;;;;;;5063519;28;20614;-57
2023/12/28 01:02:11;;;;;;;2.00;1.50;;;9.20;99.90;;;;;;5064192;28;20289;-57
2023/12/28 01:04:37;;;;;;;2.00;1.40;;;9.20;99.90;;;;;;5062429;28;20205;-56
2023/12/28 01:07:05;;;;;;;3.17;1.50;;;9.20;99.90;;;;;;5060975;28;20352;-57
2023/12/28 01:09:33;;;;;;;1.67;1.40;;;9.20;99.90;;;;;;5061414;28;20221;-57
2023/12/28 01:11:59;;;;;;;2.30;1.70;;;9.20;99.90;;;;;;5064178;28;20621;-57
2023/12/28 01:14:28;;;;;;;1.93;1.50;;;9.30;99.90;;;;;;5063707;28;20217;-57
2023/12/28 01:16:54;;;;;;;2.37;1.70;;;9.30;99.90;;;;;;5060618;28;20206;-57
2023/12/28 01:19:21;;;;;;;1.70;1.37;;;9.30;99.90;;;;;;5060451;28;20221;-57
2023/12/28 01:21:48;;;;;;;2.80;1.70;;;9.40;99.90;;;;;;5063439;28;20826;-57
2023/12/28 01:24:14;;;;;;;1.90;1.20;;;9.30;99.90;;;;;;5063680;28;20608;-57
2023/12/28 01:26:41;;;;;;;1.47;1.30;;;9.40;99.90;;;;;;5061942;28;20205;-57
2023/12/28 01:29:08;;;;;;;2.17;1.57;;;9.40;99.90;;;;;;5060547;28;20221;-58
2023/12/28 01:31:38;;;;;;;1.60;1.40;;;9.40;99.90;;;;;;5061570;28;20209;-57
2023/12/28 01:34:05;;;;;;;1.87;1.50;;;9.40;99.90;;;;;;5063859;28;20224;-57
2023/12/28 01:36:32;;;;;;;1.43;1.33;;;9.40;99.90;;;;;;5062758;28;20552;-57
2023/12/28 01:38:58;;;;;;;1.80;1.43;;;9.40;99.90;;;;;;5060456;28;20229;-57
2023/12/28 01:41:25;;;;;;;1.60;1.40;;;9.50;99.90;;;;;;5060258;28;20275;-57
2023/12/28 01:43:52;;;;;;;1.57;1.47;;;9.50;99.90;;;;;;5063713;28;20284;-57
2023/12/28 01:46:20;;;;;;;2.67;1.63;;;9.60;99.90;;;;;;5063386;28;20626;-58
2023/12/28 01:48:50;;;;;;;1.93;1.57;;;9.60;99.90;;;;;;5061293;28;20236;-57
2023/12/28 01:51:17;;;;;;;1.70;1.30;;;9.70;99.90;;;;;;5060352;28;20206;-57
2023/12/28 01:53:45;;;;;;;1.87;1.30;;;9.70;99.90;;;;;;5062730;28;20715;-57
2023/12/28 01:56:12;;;;;;;2.33;1.53;;;9.80;99.90;;;;;;5064199;28;20201;-58
2023/12/28 01:58:43;;;;;;;1.93;1.50;;;9.80;99.90;;;;;;5062012;28;20233;-58
2023/12/28 02:01:11;;;;;;;3.20;1.40;;;9.70;99.90;;;;;;5060460;28;20201;-57
2023/12/28 02:03:39;;;;;;;1.43;1.23;;;9.80;99.90;;;;;;5061309;28;20675;-57
2023/12/28 02:06:08;;;;;;;2.23;1.60;;;9.80;99.90;;;;;;5063570;28;20205;-57
2023/12/28 02:08:34;;;;;;;1.97;1.50;;;9.70;99.90;;;;;;5062338;28;20221;-57
2023/12/28 02:11:01;;;;;;;1.97;1.53;;;9.80;99.90;;;;;;5060347;28;20209;-57
2023/12/28 02:13:28;;;;;;;2.20;1.50;;;9.70;99.90;;;;;;5059550;28;20222;-57
2023/12/28 02:15:59;;;;;;;1.93;1.50;;;9.70;99.90;;;;;;5063171;28;20201;-57
2023/12/28 02:18:34;;;;;;;2.70;1.60;;;9.70;99.90;;;;;;5063011;28;20248;-57
2023/12/28 02:21:03;;;;;;;1.93;1.33;;;9.60;99.90;;;;;;5052549;28;20212;-57
2023/12/28 02:23:33;;;;;;;7.77;4.00;;;9.60;99.90;;;;;;5059847;28;20281;-57
2023/12/28 02:26:01;;;;;;;7.63;3.63;;;9.60;99.90;;;;;;5063217;28;20197;-57
2023/12/28 02:28:28;;;;;;;3.23;1.97;;;9.60;99.90;;;;;;5062688;28;20248;-57
2023/12/28 02:30:55;;;;;;;2.37;1.73;;;9.60;99.90;;;;;;5059452;28;20201;-57
2023/12/28 02:33:27;;;;;;;2.50;1.70;;;9.60;99.90;;;;;;5059501;28;20230;-57
2023/12/28 02:35:59;;;;;;;3.50;1.70;;;9.70;99.90;;;;;;5062749;28;20678;-56
2023/12/28 02:38:30;;;;;;;3.27;1.70;;;9.70;99.90;;;;;;5062838;28;20227;-57
2023/12/28 02:40:57;;;;;;;1.70;1.43;;;9.70;99.90;;;;;;5051426;28;20259;-56
2023/12/28 02:43:25;;;;;;;2.37;1.57;;;9.80;99.90;;;;;;5059247;28;20242;-57
2023/12/28 02:45:52;;;;;;;2.33;1.40;;;9.70;99.90;;;;;;5062680;28;20205;-57
2023/12/28 02:48:19;;;;;;;2.17;1.43;;;9.70;99.90;;;;;;5062392;28;20653;-57
2023/12/28 02:50:46;;;;;;;1.80;1.47;;;9.70;99.90;;;;;;5059935;28;20616;-57
2023/12/28 02:53:13;;;;;;;2.30;1.60;;;9.70;99.90;;;;;;5058877;28;20576;-57
2023/12/28 02:55:40;;;;;;;2.00;1.60;;;9.70;99.90;;;;;;5060475;28;20208;-57
2023/12/28 02:58:06;;;;;;;2.77;1.67;;;9.80;99.90;;;;;;5066176;28;20331;-57
2023/12/28 03:00:34;;;;;;;1.50;1.33;;;9.80;99.90;;;;;;5067785;28;20600;-57
2023/12/28 03:03:01;;;;;;;2.03;1.50;;;9.90;99.90;;;;;;5062849;28;20587;-57
2023/12/28 03:05:28;;;;;;;2.37;1.77;;;9.80;99.90;;;;;;5062956;28;20209;-57
2023/12/28 03:07:55;;;;;;;1.80;1.30;;;9.80;99.90;;;;;;5054794;28;20227;-57
2023/12/28 03:10:22;;;;;;;2.00;1.30;;;9.80;99.90;;;;;;5062789;28;20230;-57
2023/12/28 03:12:48;;;;;;;1.40;1.30;;;9.90;99.90;;;;;;5060029;28;22398;-57
2023/12/28 03:15:16;;;;;;;1.87;1.50;;;9.90;99.90;;;;;;5057442;28;20633;-57
2023/12/28 03:17:44;;;;;;;2.07;1.63;;;9.90;99.90;;;;;;5064581;28;20259;-57
2023/12/28 03:20:11;;;;;;;1.40;1.20;;;9.90;99.90;;;;;;5065756;28;20311;-57
2023/12/28 03:22:38;;;;;;;2.07;1.33;;;9.90;99.90;;;;;;5065100;28;20475;-57
2023/12/28 03:25:06;;;;;;;2.10;1.43;;;9.80;99.90;;;;;;5062340;28;20203;-57
2023/12/28 03:27:33;;;;;;;2.00;1.40;;;9.90;99.90;;;;;;5063234;28;20209;-57
2023/12/28 03:29:59;;;;;;;2.60;1.50;;;9.80;99.90;;;;;;5066132;28;20303;-57
2023/12/28 03:32:26;;;;;;;2.33;1.50;;;9.90;99.90;;;;;;5065825;28;20205;-57
2023/12/28 03:34:54;;;;;;;3.43;1.47;;;9.90;99.90;;;;;;5062406;28;20504;-57
2023/12/28 03:37:21;;;;;;;2.07;1.40;;;9.90;99.90;;;;;;5062291;28;20209;-57
2023/12/28 03:39:47;;;;;;;2.37;1.73;;;9.90;99.90;;;;;;5064704;28;20233;-56
2023/12/28 03:42:14;;;;;;;1.70;1.40;;;10.10;99.90;;;;;;5065636;28;20254;-56
2023/12/28 03:44:41;;;;;;;2.40;1.60;;;10.20;99.90;;;;;;5064280;28;20212;-56
2023/12/28 03:47:08;;;;;;;2.10;1.40;;;10.40;99.90;;;;;;5062268;28;20285;-57
2023/12/28 03:49:35;;;;;;;1.87;1.20;;;10.60;99.70;;;;;;5062594;28;20225;-56
2023/12/28 03:52:03;;;;;;;3.03;1.50;;;10.70;99.40;;;;;;5065165;28;20204;-57
2023/12/28 03:54:29;;;;;;;1.80;1.30;;;10.70;99.30;;;;;;5065286;28;20224;-57
2023/12/28 03:56:57;;;;;;;1.97;1.40;;;10.70;99.30;;;;;;5054252;28;20581;-57
2023/12/28 03:59:23;;;;;;;2.43;1.60;;;10.80;99.20;;;;;;5061848;28;20625;-57
2023/12/28 04:01:50;;;;;;;2.77;1.20;;;10.80;98.70;;;;;;5064330;28;20690;-57
2023/12/28 04:04:17;;;;;;;3.40;1.60;;;10.90;98.80;;;;;;5065153;28;20212;-57
2023/12/28 04:06:44;;;;;;;1.20;1.10;;;11.00;98.50;;;;;;5063111;28;20217;-57
2023/12/28 04:09:13;;;;;;;1.90;1.20;;;11.10;98.40;;;;;;5060513;28;20279;-57
2023/12/28 04:11:40;;;;;;;1.63;1.43;;;11.10;98.30;;;;;;5062893;28;20296;-57
2023/12/28 04:14:07;;;;;;;2.10;1.57;;;11.10;98.40;;;;;;5065093;28;20221;-57
2023/12/28 04:16:33;;;;;;;2.00;1.40;;;11.10;98.40;;;;;;5064472;28;20274;-57
2023/12/28 04:19:00;;;;;;;2.80;1.27;;;11.20;98.30;;;;;;5072834;22;20279;-56
2023/12/28 04:21:27;;;;;;;1.87;1.20;;;11.20;98.30;;;;;;5045242;28;20205;-57
2023/12/28 04:23:53;;;;;;;1.93;1.53;;;11.30;98.30;;;;;;5041778;28;20671;-55
2023/12/28 04:26:21;;;;;;;3.27;1.50;;;11.30;98.50;;;;;;5041681;28;20210;-57
2023/12/28 04:28:48;;;;;;;2.13;1.67;;;11.30;98.60;;;;;;5046291;28;20283;-57
2023/12/28 04:31:15;;;;;;;2.67;1.97;;;11.40;98.70;;;;;;5053009;28;20590;-57
2023/12/28 04:33:41;;;;;;;2.33;1.80;;;11.50;98.70;;;;;;5052672;28;20632;-57
2023/12/28 04:36:08;;;;;;;2.10;1.60;;;11.60;98.80;;;;;;5053481;28;20205;-56
2023/12/28 04:38:35;;;;;;;2.10;1.50;;;11.70;98.80;;;;;;5053018;28;20316;-56
2023/12/28 04:41:02;;;;;;;2.13;1.57;;;11.70;98.70;;;;;;5052904;28;20251;-57
2023/12/28 04:43:30;;;;;;;2.07;1.43;;;11.70;98.50;;;;;;5053027;28;20205;-57
2023/12/28 04:45:57;;;;;;;2.10;1.47;;;11.80;98.40;;;;;;5052919;28;20224;-58
2023/12/28 04:48:25;;;;;;;3.23;1.70;;;11.90;98.30;;;;;;5052728;28;20257;-57
2023/12/28 04:50:53;;;;;;;1.70;1.20;;;11.90;98.00;;;;;;5052472;28;20206;-57
2023/12/28 04:53:20;;;;;;;2.60;1.60;;;12.00;97.90;;;;;;5052952;28;20784;-57
2023/12/28 04:55:46;;;;;;;3.67;1.23;;;12.00;97.80;;;;;;5053033;28;20657;-57
2023/12/28 04:58:13;;;;;;;1.40;1.20;;;12.00;97.60;;;;;;5052540;28;20294;-58
2023/12/28 05:00:41;;;;;;;1.67;1.50;;;11.90;97.50;;;;;;5052658;28;20264;-56
2023/12/28 05:03:08;;;;;;;1.67;1.20;;;11.90;97.70;;;;;;5052770;28;20202;-56
2023/12/28 05:05:35;;;;;;;1.57;1.23;;;11.80;97.80;;;;;;5052485;28;20693;-57
2023/12/28 05:08:01;;;;;;;1.97;1.50;;;11.70;98.10;;;;;;5052720;28;20689;-57
2023/12/28 05:10:28;;;;;;;2.87;1.50;;;11.50;98.30;;;;;;5052505;28;20711;-55
2023/12/28 05:12:55;;;;;;;1.80;1.40;;;11.50;98.30;;;;;;5052370;28;20288;-57
2023/12/28 05:15:21;;;;;;;2.63;1.70;;;11.40;98.40;;;;;;5052683;28;20599;-57
2023/12/28 05:17:50;;;;;;;1.53;1.20;;;11.30;98.60;;;;;;5052262;28;20209;-57
2023/12/28 05:20:17;;;;;;;1.83;1.50;;;11.20;98.60;;;;;;5051924;28;20780;-57
2023/12/28 05:22:44;;;;;;;2.03;1.30;;;11.20;98.90;;;;;;5052176;28;20284;-57
2023/12/28 05:25:10;;;;;;;2.37;1.30;;;11.20;99.00;;;;;;5052253;28;20209;-56
2023/12/28 05:27:37;;;;;;;1.90;1.57;;;11.20;99.00;;;;;;5051964;28;20209;-57
2023/12/28 05:30:05;;;;;;;1.50;1.20;;;11.30;98.80;;;;;;5052036;28;20225;-56
2023/12/28 05:32:31;;;;;;;2.17;1.40;;;11.40;98.70;;;;;;5051854;28;20213;-56
2023/12/28 05:34:59;;;;;;;3.10;1.40;;;11.60;98.50;;;;;;5052141;28;20217;-56
2023/12/28 05:37:26;;;;;;;1.80;1.10;;;11.60;98.30;;;;;;5051945;28;20197;-57
2023/12/28 05:39:53;;;;;;;1.50;1.20;;;11.70;98.30;;;;;;5051768;28;20287;-56
2023/12/28 05:42:19;;;;;;;2.03;1.23;;;11.70;98.20;;;;;;5051568;28;20259;-56
2023/12/28 05:44:46;;;;;;;2.23;1.40;;;11.80;98.30;;;;;;5052046;28;20267;-57
2023/12/28 05:47:13;;;;;;;2.13;1.30;;;11.90;98.20;;;;;;5052123;28;20379;-57
2023/12/28 05:49:39;;;;;;;2.33;1.50;;;11.90;98.20;;;;;;5051766;28;20271;-57
2023/12/28 05:52:07;;;;;;;2.40;1.57;;;12.10;98.20;;;;;;5052115;28;20205;-56
2023/12/28 05:54:34;;;;;;;2.40;1.23;;;12.20;98.30;;;;;;5051430;28;20733;-55
2023/12/28 05:57:01;;;;;;;2.13;1.40;;;12.20;98.30;;;;;;5051959;28;20201;-54
2023/12/28 05:59:28;;;;;;;3.70;1.40;;;12.20;98.40;;;;;;5051638;28;20221;-57
2023/12/28 06:01:55;;;;;;;2.63;1.60;;;12.20;98.40;;;;;;5051894;28;20251;-56
2023/12/28 06:04:21;;;;;;;2.13;1.50;;;12.20;98.50;;;;;;5051891;28;20197;-56
2023/12/28 06:06:48;;;;;;;3.10;1.63;;;12.20;98.70;;;;;;5051878;28;20257;-56
2023/12/28 06:09:16;;;;;;;2.10;1.63;;;12.30;98.90;;;;;;5051628;28;20271;-56
2023/12/28 06:11:43;;;;;;;1.90;1.53;;;12.20;99.10;;;;;;5051127;28;20210;-57
2023/12/28 06:14:09;;;;;;;1.67;1.43;;;12.20;99.30;;;;;;5052073;28;20221;-55
2023/12/28 06:16:36;;;;;;;2.37;1.50;;;12.20;99.40;;;;;;5051489;28;20209;-56
2023/12/28 06:19:03;;;;;;;2.03;1.20;;;12.30;99.40;;;;;;5051259;28;20233;-56
2023/12/28 06:21:30;;;;;;;1.73;1.20;;;12.40;99.50;;;;;;5051034;28;20214;-57
2023/12/28 06:23:57;;;;;;;2.50;1.60;;;12.40;99.50;;;;;;5051158;28;20232;-57
2023/12/28 06:26:25;;;;;;;3.70;2.60;;;12.60;99.60;;;;;;5051533;28;20259;-56
2023/12/28 06:28:51;;;;;;;2.57;1.90;;;12.60;99.60;;;;;;5051581;28;20226;-57
2023/12/28 06:31:18;;;;;;;2.23;1.50;;;12.60;99.60;;;;;;5050850;28;20201;-56
2023/12/28 06:33:45;;;;;;;2.57;2.00;;;12.70;99.70;;;;;;5051118;28;20674;-56
2023/12/28 06:36:13;;;;;;;2.43;2.20;;;12.80;99.70;;;;;;5051923;28;20229;-57
2023/12/28 06:38:39;;;;;;;3.47;2.20;;;12.70;99.70;;;;;;5050856;28;20250;-56
2023/12/28 06:41:12;;;;;;;1.83;1.60;;;12.80;99.70;;;;;;5051154;28;20202;-55
2023/12/28 06:43:40;;;;;;;2.80;1.80;;;12.80;99.80;;;;;;5051076;28;20232;-56
2023/12/28 06:46:06;;;;;;;2.07;1.60;;;12.80;99.90;;;;;;5051016;28;20233;-57
2023/12/28 06:48:33;;;;;;;2.67;1.90;;;12.80;99.90;;;;;;5051121;28;20247;-57
2023/12/28 06:51:00;;;;;;;5.93;2.10;;;12.80;99.90;;;;;;5050837;28;20637;-56
2023/12/28 06:53:26;;;;;;;4.10;1.47;;;12.80;99.90;;;;;;5050986;28;20259;-56
2023/12/28 06:55:53;;;;;;;2.53;1.70;;;12.80;99.90;;;;;;5050538;28;20272;-57
2023/12/28 06:58:20;;;;;;;2.60;1.70;;;12.80;99.90;;;;;;5050885;28;20209;-57
2023/12/28 07:00:48;;;;;;;3.37;1.60;;;12.80;99.90;;;;;;5050897;28;20209;-56
2023/12/28 07:03:14;;;;;;;2.93;2.20;;;12.80;99.90;;;;;;5050855;28;20211;-55
2023/12/28 07:05:41;;;;;;;5.17;1.70;;;12.90;99.90;;;;;;5050651;28;20214;-56
2023/12/28 07:08:08;;;;;;;3.47;2.43;;;12.90;99.90;;;;;;5051088;28;20256;-56
2023/12/28 07:10:35;;;;;;;2.73;1.80;;;12.90;99.90;;;;;;5051143;28;20284;-57
2023/12/28 07:13:03;;;;;;;2.23;1.70;;;12.90;99.90;;;;;;5034968;28;20209;-57
2023/12/28 07:15:29;;;;;;;1.93;1.53;;;12.90;99.90;;;;;;5050972;28;20267;-57
2023/12/28 07:17:57;;;;;;;2.73;1.90;;;13.00;99.90;;;;;;5051170;28;20206;-57
2023/12/28 07:20:24;;;;;;;2.53;1.80;;;13.00;99.90;;;;;;5051211;28;20316;-57
2023/12/28 07:22:51;;;;;;;4.13;2.53;;;13.00;99.90;;;;;;5051344;28;20256;-57
2023/12/28 07:25:17;;;;;;;4.70;2.77;;;13.10;99.90;;;;;;5051712;28;20201;-57
2023/12/28 07:27:44;;;;;;;2.50;1.90;;;13.00;99.90;;;;;;5051529;28;20213;-57
2023/12/28 07:30:12;;;;;;;4.57;2.20;;;13.10;99.90;;;;;;5051292;28;20236;-57
2023/12/28 07:32:38;;;;;;;4.03;1.93;;;13.00;99.90;;;;;;5051222;28;20217;-57
2023/12/28 07:35:07;;;;;;;3.70;1.90;;;13.00;99.90;;;;;;5050858;28;20297;-56
2023/12/28 07:37:34;;;;;;;3.90;2.40;;;12.90;99.90;;;;;;5051210;28;20209;-57
2023/12/28 07:40:00;;;;;;;3.03;2.30;;;12.80;99.90;;;;;;5050948;28;20251;-57
2023/12/28 07:42:27;;;;;;;2.60;1.90;;;12.50;99.90;;;;;;5051172;28;20202;-57
2023/12/28 07:44:54;;;;;;;3.37;2.00;;;12.10;99.90;;;;;;5054376;28;20663;-56
2023/12/28 07:47:21;;;;;;;3.30;2.13;;;11.70;99.90;;;;;;5054576;28;20216;-57
2023/12/28 07:49:48;;;;;;;3.90;2.00;;;11.60;99.90;;;;;;5054450;28;20256;-56
2023/12/28 07:52:15;;;;;;;3.20;2.27;;;11.60;99.90;;;;;;5054320;28;20229;-57
2023/12/28 07:54:42;;;;;;;5.67;2.50;;;11.60;99.90;;;;;;5053942;28;20700;-57
2023/12/28 07:57:09;;;;;;;2.50;2.20;;;11.60;99.90;;;;;;5054088;28;20206;-57
2023/12/28 07:59:35;;;;;;;2.30;2.10;;;11.60;99.90;;;;;;5053680;28;20667;-55
2023/12/28 08:02:02;;;;;;;3.30;2.50;;;11.70;99.90;;;;;;5037358;28;20736;-56
2023/12/28 08:04:29;;;;;;;4.47;2.17;;;11.80;99.90;;;;;;5054014;28;20206;-57
2023/12/28 08:06:55;;;;;;;3.47;2.43;;;11.90;99.90;;;;;;5053842;28;20801;-57
2023/12/28 08:09:23;;;;;;;2.70;2.10;;;12.00;99.90;;;;;;5054022;28;20221;-56
2023/12/28 08:11:50;;;;;;;3.20;2.43;;;12.10;99.90;;;;;;5053811;28;20288;-58
2023/12/28 08:14:17;;;;;;;3.83;2.93;;;12.10;99.90;;;;;;5054216;28;20250;-58
2023/12/28 08:16:44;;;;;;;3.37;2.47;;;12.20;99.90;;;;;;5054179;28;20252;-57
2023/12/28 08:19:10;;;;;;;6.67;3.10;;;12.20;99.90;;;;;;5054384;28;20233;-57
2023/12/28 08:21:37;;;;;;;6.50;3.60;;;12.20;99.90;;;;;;5054531;28;20209;-58
2023/12/28 08:24:04;;;;;;;5.63;3.47;;;12.30;99.90;;;;;;5038796;28;20667;-58
2023/12/28 08:26:32;;;;;;;7.93;3.97;;;12.30;99.90;;;;;;5053558;28;20201;-57
2023/12/28 08:28:59;;;;;;;7.23;4.00;;;12.30;99.90;;;;;;5053384;28;20312;-57
2023/12/28 08:31:26;;;;;;;8.03;4.13;;;12.40;99.90;;;;;;5053309;28;20206;-57
2023/12/28 08:33:52;;;;;;;7.87;3.63;;;12.40;99.90;;;;;;5053323;28;20209;-57
2023/12/28 08:36:19;;;;;;;5.27;3.13;;;12.50;99.90;;;;;;5053398;28;20332;-57
2023/12/28 08:38:45;;;;;;;6.20;3.33;;;12.50;99.90;;;;;;5053188;28;20226;-57
2023/12/28 08:41:19;;;;;;;5.20;3.20;;;12.50;99.90;;;;;;5052917;28;20212;-58
2023/12/28 08:43:47;;;;;;;10.33;5.70;;;12.50;99.90;;;;;;5052730;28;20221;-57
2023/12/28 08:46:14;;;;;;;6.00;3.53;;;12.40;99.90;;;;;;5053165;28;20200;-58
2023/12/28 08:48:41;;;;;;;7.10;4.53;;;12.50;99.90;;;;;;5053098;28;20651;-57
2023/12/28 08:51:07;;;;;;;7.73;4.10;;;12.50;99.90;;;;;;5052810;28;20288;-57
2023/12/28 08:53:34;;;;;;;4.60;2.67;;;12.60;99.90;;;;;;5052828;28;20562;-58
2023/12/28 08:56:01;;;;;;;5.77;2.97;;;12.50;99.90;;;;;;5052102;28;20228;-56
2023/12/28 08:58:27;;;;;;;4.53;2.43;;;12.50;99.90;;;;;;5052962;28;20567;-56
2023/12/28 09:00:55;;;;;;;5.27;2.30;;;12.50;99.90;;;;;;5052126;28;20241;-57
2023/12/28 09:03:22;;;;;;;10.47;5.17;;;12.50;99.90;;;;;;5052516;28;20198;-57
2023/12/28 09:05:49;;;;;;;10.17;5.67;;;12.60;99.90;;;;;;5052623;28;20202;-57
2023/12/28 09:08:16;;;;;;;16.57;9.87;;;12.60;99.90;;;;;;5052540;28;20201;-57
2023/12/28 09:10:43;;;;;;;10.57;5.97;;;12.70;99.90;;;;;;5052614;28;20234;-53
2023/12/28 09:13:15;;;;;;;17.93;10.97;;;12.80;99.90;;;;;;5053257;28;20225;-57
2023/12/28 09:15:42;;;;;;;11.27;6.67;;;12.90;99.90;;;;;;5052407;28;20225;-57
2023/12/28 09:18:10;;;;;;;18.47;10.37;;;12.90;99.90;;;;;;5052712;28;20202;-58
2023/12/28 09:20:37;;;;;;;26.83;16.17;;;12.90;99.90;;;;;;5052269;28;20225;-57
2023/12/28 09:23:04;;;;;;;12.30;8.10;;;12.90;99.90;;;;;;5051682;28;20201;-57
2023/12/28 09:25:30;;;;;;;13.67;9.07;;;12.90;99.90;;;;;;5051961;28;20300;-57
2023/12/28 09:27:57;;;;;;;15.57;10.27;;;12.80;99.90;;;;;;5052165;28;20209;-57
2023/12/28 09:30:24;;;;;;;20.57;13.47;;;12.70;99.90;;;;;;5052003;28;20287;-57
2023/12/28 09:32:50;;;;;;;8.53;5.80;;;12.70;99.90;;;;;;5051823;28;20263;-57
2023/12/28 09:35:18;;;;;;;10.00;6.53;;;12.60;99.90;;;;;;5051920;28;20279;-58
2023/12/28 09:37:47;;;;;;;7.70;5.60;;;12.50;99.90;;;;;;5051219;28;20300;-59
2023/12/28 09:40:14;;;;;;;7.00;5.30;;;12.50;99.90;;;;;;5051496;28;20232;-57
2023/12/28 09:42:49;;;;;;;9.33;7.00;;;12.60;99.90;;;;;;5050972;28;20619;-57
2023/12/28 09:45:16;;;;;;;6.97;5.10;;;12.80;99.90;;;;;;5051494;28;20197;-58
2023/12/28 09:47:43;;;;;;;4.80;4.30;;;13.00;99.90;;;;;;5051358;28;20202;-58
2023/12/28 09:50:11;;;;;;;6.23;4.23;;;13.10;99.90;;;;;;5051339;28;20271;-58
2023/12/28 09:52:39;;;;;;;7.10;4.27;;;13.20;99.90;;;;;;5050811;28;20297;-57
2023/12/28 09:55:08;;;;;;;5.07;4.40;;;13.30;99.90;;;;;;5035056;28;20211;-57
2023/12/28 09:57:35;;;;;;;5.47;4.33;;;13.50;99.90;;;;;;5051048;28;20643;-58
2023/12/28 10:00:02;;;;;;;6.60;3.80;;;13.50;99.90;;;;;;5050801;28;20235;-58
2023/12/28 10:02:31;;;;;;;4.03;3.60;;;13.50;99.90;;;;;;5050835;28;20297;-58
2023/12/28 10:04:58;;;;;;;4.70;3.03;;;13.40;99.90;;;;;;5050823;28;20206;-58
2023/12/28 10:07:26;;;;;;;4.17;2.87;;;13.20;99.90;;;;;;5051494;28;20210;-58
2023/12/28 10:09:54;;;;;;;3.60;2.80;;;13.00;99.90;;;;;;5050763;28;20275;-57
2023/12/28 10:12:21;;;;;;;5.07;3.00;;;13.00;99.90;;;;;;5050878;28;20215;-57
2023/12/28 10:14:48;;;;;;;4.47;3.57;;;13.00;99.90;;;;;;5052114;28;20213;-58
2023/12/28 10:17:15;;;;;;;6.97;3.60;;;12.90;99.90;;;;;;5052922;28;20225;-56
2023/12/28 10:19:45;;;;;;;5.13;3.60;;;12.90;99.90;;;;;;5052855;28;20261;-58
2023/12/28 10:22:14;;;;;;;5.00;3.43;;;12.80;99.90;;;;;;5052021;28;20255;-58
2023/12/28 10:24:43;;;;;;;5.13;4.10;;;12.60;99.90;;;;;;5052125;28;20212;-57
2023/12/28 10:27:12;;;;;;;5.07;3.50;;;12.70;99.90;;;;;;5036562;28;20477;-58
2023/12/28 10:29:39;;;;;;;4.90;3.93;;;12.90;99.90;;;;;;5051713;28;20649;-58
2023/12/28 10:32:06;;;;;;;5.33;4.07;;;13.10;99.90;;;;;;5051627;28;20209;-58
2023/12/28 10:34:33;;;;;;;6.70;4.43;;;13.30;99.90;;;;;;5052369;28;20620;-57
2023/12/28 10:37:01;;;;;;;6.57;4.03;;;13.40;99.90;;;;;;5040855;28;20507;-59
2023/12/28 10:39:32;;;;;;;4.90;3.50;;;13.40;99.90;;;;;;5051376;28;20304;-62
2023/12/28 10:42:04;;;;;;;5.67;4.10;;;13.30;99.90;;;;;;5050982;28;20228;-60
2023/12/28 10:44:39;;;;;;;7.27;3.70;;;13.10;99.90;;;;;;5050656;28;20216;-61
2023/12/28 10:47:11;;;;;;;29.97;23.77;;;13.00;99.90;;;;;;5051106;28;20205;-60
2023/12/28 10:49:40;;;;;;;8.27;6.47;;;12.90;99.90;;;;;;5050657;28;20292;-60
2023/12/28 10:52:10;;;;;;;8.93;6.63;;;13.10;99.90;;;;;;5033846;28;20202;-59
2023/12/28 10:54:45;;;;;;;5.47;3.83;;;13.30;99.90;;;;;;5050408;28;20213;-59
2023/12/28 10:57:24;;;;;;;6.23;3.33;;;13.20;99.90;;;;;;5035087;28;20253;-60
2023/12/28 11:00:04;;;;;;;6.13;3.90;;;12.90;99.90;;;;;;5050357;28;20236;-61
2023/12/28 11:02:46;;;;;;;4.73;3.70;;;12.70;99.90;;;;;;5050361;28;20259;-58
2023/12/28 11:05:13;;;;;;;6.37;4.13;;;12.70;99.90;;;;;;5035691;28;20617;-58
2023/12/28 11:07:41;;;;;;;4.47;3.60;;;12.90;99.90;;;;;;5050492;28;20206;-58
2023/12/28 11:10:10;;;;;;;6.70;4.17;;;13.20;99.90;;;;;;5050318;28;20225;-58
2023/12/28 11:12:38;;;;;;;5.63;3.90;;;13.50;99.90;;;;;;5050308;28;20232;-58
2023/12/28 11:15:08;;;;;;;3.93;3.07;;;13.70;99.90;;;;;;5050500;28;20256;-58
2023/12/28 11:17:38;;;;;;;6.83;3.40;;;13.80;99.90;;;;;;5051304;28;20233;-58
2023/12/28 11:20:06;;;;;;;4.97;3.43;;;14.00;99.90;;;;;;5054142;28;20240;-58
2023/12/28 11:22:33;;;;;;;6.50;3.80;;;14.10;99.90;;;;;;5054279;28;20208;-58
2023/12/28 11:25:00;;;;;;;4.90;3.40;;;13.70;99.90;;;;;;5054446;28;20209;-57
2023/12/28 11:27:33;;;;;;;7.10;4.30;;;13.20;99.90;;;;;;5054253;28;20198;-57
2023/12/28 11:30:00;;;;;;;5.17;4.30;;;13.10;99.90;;;;;;5054181;28;20268;-56
2023/12/28 11:32:28;;;;;;;8.37;4.20;;;13.20;99.90;;;;;;5053867;28;20210;-57
2023/12/28 11:34:59;;;;;;;18.10;16.13;;;13.40;99.90;;;;;;5053922;28;20206;-58
2023/12/28 11:37:28;;;;;;;13.73;12.37;;;13.50;99.90;;;;;;5054058;28;20230;-57
2023/12/28 11:39:56;;;;;;;6.23;4.83;;;13.60;99.90;;;;;;5053662;28;20611;-57
2023/12/28 11:42:23;;;;;;;4.93;3.57;;;13.70;99.90;;;;;;5053606;28;20586;-57
2023/12/28 11:44:56;;;;;;;8.30;4.33;;;13.70;99.90;;;;;;5053578;28;20293;-58
2023/12/28 11:47:24;;;;;;;5.87;4.10;;;13.80;99.90;;;;;;5054115;28;20201;-58
2023/12/28 11:49:52;;;;;;;5.87;4.47;;;13.90;99.90;;;;;;5054005;28;20230;-60
2023/12/28 11:52:27;;;;;;;8.53;4.43;;;13.90;99.90;;;;;;5053530;28;20706;-60
2023/12/28 11:54:53;;;;;;;6.03;4.07;;;14.00;99.90;;;;;;5053528;28;20284;-60
2023/12/28 11:57:20;;;;;;;7.30;4.50;;;13.70;99.90;;;;;;5054025;28;20225;-59
2023/12/28 11:59:47;;;;;;;4.63;3.53;;;13.70;99.90;;;;;;5053462;28;20237;-61
2023/12/28 12:02:14;;;;;;;5.70;4.00;;;13.80;99.90;;;;;;5053666;28;20201;-58
2023/12/28 12:04:41;;;;;;;9.00;4.57;;;13.80;99.90;;;;;;5053919;28;20209;-58
2023/12/28 12:07:09;;;;;;;6.23;3.90;;;13.90;99.90;;;;;;5053496;28;20232;-60
2023/12/28 12:09:36;;;;;;;7.37;3.50;;;13.90;99.90;;;;;;5053499;28;20230;-60
2023/12/28 12:12:03;;;;;;;9.03;4.37;;;13.90;99.90;;;;;;5053079;28;20683;-59
2023/12/28 12:14:30;;;;;;;5.33;4.03;;;13.90;99.90;;;;;;5053527;28;20266;-61
2023/12/28 12:16:58;;;;;;;4.83;4.07;;;14.00;99.90;;;;;;5053364;28;20328;-59
2023/12/28 12:19:26;;;;;;;4.83;3.30;;;14.10;99.90;;;;;;5053170;28;20283;-60
2023/12/28 12:21:53;;;;;;;5.10;3.50;;;14.10;99.90;;;;;;5052855;28;20300;-62
2023/12/28 12:24:21;;;;;;;132.93;115.20;;;14.10;99.90;;;;;;5053156;28;20198;-61
2023/12/28 12:26:50;;;;;;;14.03;8.53;;;14.10;99.90;;;;;;5051656;28;20285;-61
2023/12/28 12:29:17;;;;;;;6.67;4.37;;;14.20;99.90;;;;;;5052052;28;20224;-61
2023/12/28 12:31:45;;;;;;;7.70;4.27;;;14.30;99.90;;;;;;5052563;28;20621;-63
2023/12/28 12:34:12;;;;;;;5.57;3.97;;;14.40;99.90;;;;;;5037438;28;20202;-62
2023/12/28 12:36:39;;;;;;;4.27;3.23;;;14.40;99.90;;;;;;5053101;28;20221;-56
2023/12/28 12:39:06;;;;;;;4.77;3.50;;;14.40;99.90;;;;;;5052525;28;20226;-59
2023/12/28 12:41:34;;;;;;;6.20;4.07;;;14.40;99.90;;;;;;5052628;28;20586;-57
2023/12/28 12:44:01;;;;;;;5.90;3.67;;;14.30;99.90;;;;;;5052814;28;20213;-58
2023/12/28 12:46:28;;;;;;;5.57;4.33;;;14.40;99.90;;;;;;5052460;28;20197;-57
2023/12/28 12:48:56;;;;;;;5.33;3.20;;;14.40;99.90;;;;;;5052373;28;20275;-55